createdAt,value
2022-09-17T00:00:53.580Z,10.60
2022-09-17T00:03:23.162Z,10.70
2022-09-17T00:05:51.103Z,10.60
2022-09-17T00:08:19.128Z,10.60
2022-09-17T00:10:47.138Z,10.60
2022-09-17T00:13:15.091Z,10.70
2022-09-17T00:15:43.853Z,10.60
2022-09-17T00:18:12.301Z,10.70
2022-09-17T00:20:43.508Z,10.70
2022-09-17T00:23:12.278Z,10.60
2022-09-17T00:25:41.089Z,10.80
2022-09-17T00:28:09.449Z,10.70
2022-09-17T00:30:40.950Z,10.60
2022-09-17T00:33:09.304Z,10.70
2022-09-17T00:35:37.265Z,10.60
2022-09-17T00:38:06.822Z,10.60
2022-09-17T00:40:35.064Z,10.60
2022-09-17T00:43:03.093Z,10.60
2022-09-17T00:45:32.211Z,10.70
2022-09-17T00:48:02.739Z,10.70
2022-09-17T00:50:35.023Z,10.80
2022-09-17T00:53:07.565Z,10.80
2022-09-17T00:55:40.495Z,10.70
2022-09-17T00:58:11.718Z,10.80
2022-09-17T01:00:40.642Z,10.80
2022-09-17T01:03:08.886Z,10.80
2022-09-17T01:05:48.199Z,10.80
2022-09-17T01:08:27.038Z,10.80
2022-09-17T01:11:21.188Z,10.80
2022-09-17T01:14:05.036Z,10.80
2022-09-17T01:16:38.652Z,10.80
2022-09-17T01:19:29.564Z,10.80
2022-09-17T01:22:04.572Z,10.80
2022-09-17T01:24:47.710Z,10.80
2022-09-17T01:27:49.826Z,10.80
2022-09-17T01:30:35.617Z,10.90
2022-09-17T01:33:13.533Z,10.80
2022-09-17T01:35:49.840Z,10.80
2022-09-17T01:38:27.422Z,10.80
2022-09-17T01:41:00.368Z,10.80
2022-09-17T01:43:34.611Z,10.80
2022-09-17T01:46:08.722Z,10.90
2022-09-17T01:48:44.472Z,10.90
2022-09-17T01:51:16.770Z,10.90
2022-09-17T01:53:51.673Z,10.90
2022-09-17T01:56:25.525Z,10.90
2022-09-17T01:58:59.330Z,10.90
2022-09-17T02:01:31.110Z,10.80
2022-09-17T02:04:04.812Z,10.80
2022-09-17T02:06:37.517Z,10.80
2022-09-17T02:09:11.670Z,10.80
2022-09-17T02:11:47.249Z,10.80
2022-09-17T02:14:21.146Z,10.80
2022-09-17T02:16:53.211Z,10.70
2022-09-17T02:19:27.371Z,10.60
2022-09-17T02:22:03.813Z,10.60
2022-09-17T02:24:38.130Z,10.50
2022-09-17T02:27:11.621Z,10.50
2022-09-17T02:29:41.620Z,10.40
2022-09-17T02:32:10.541Z,10.40
2022-09-17T02:34:40.561Z,10.40
2022-09-17T02:37:08.970Z,10.40
2022-09-17T02:39:37.303Z,10.30
2022-09-17T02:42:15.895Z,10.30
2022-09-17T02:44:55.986Z,10.30
2022-09-17T02:47:52.253Z,10.30
2022-09-17T02:50:30.657Z,10.30
2022-09-17T02:53:13.880Z,10.30
2022-09-17T02:55:47.368Z,10.30
2022-09-17T02:58:25.174Z,10.30
2022-09-17T03:00:54.845Z,10.30
2022-09-17T03:03:30.319Z,10.20
2022-09-17T03:06:01.189Z,10.20
2022-09-17T03:08:30.710Z,10.30
2022-09-17T03:10:58.907Z,10.30
2022-09-17T03:13:26.964Z,10.30
2022-09-17T03:15:55.037Z,10.20
2022-09-17T03:18:23.361Z,10.20
2022-09-17T03:20:51.412Z,10.20
2022-09-17T03:23:20.753Z,10.10
2022-09-17T03:25:49.613Z,10.20
2022-09-17T03:28:18.031Z,10.20
2022-09-17T03:30:46.611Z,10.10
2022-09-17T03:33:14.930Z,10.10
2022-09-17T03:35:44.536Z,10.10
2022-09-17T03:38:12.739Z,10.10
2022-09-17T03:40:42.446Z,10.00
2022-09-17T03:43:11.157Z,10.10
2022-09-17T03:45:39.198Z,10.00
2022-09-17T03:48:07.190Z,9.90
2022-09-17T03:50:35.223Z,9.80
2022-09-17T03:53:03.287Z,9.80
2022-09-17T03:55:31.380Z,9.80
2022-09-17T03:58:00.678Z,9.70
2022-09-17T04:00:28.752Z,9.80
2022-09-17T04:02:56.782Z,9.80
2022-09-17T04:05:24.864Z,9.80
2022-09-17T04:07:52.913Z,9.70
2022-09-17T04:10:20.944Z,9.70
2022-09-17T04:12:48.937Z,9.80
2022-09-17T04:15:18.631Z,9.80
2022-09-17T04:17:46.660Z,9.80
2022-09-17T04:20:14.708Z,9.80
2022-09-17T04:22:43.283Z,9.80
2022-09-17T04:25:12.146Z,9.80
2022-09-17T04:27:40.128Z,9.80
2022-09-17T04:30:08.906Z,9.70
2022-09-17T04:32:38.254Z,9.70
2022-09-17T04:35:06.628Z,9.70
2022-09-17T04:37:34.648Z,9.70
2022-09-17T04:40:07.545Z,9.70
2022-09-17T04:42:36.301Z,9.70
2022-09-17T04:45:04.557Z,9.70
2022-09-17T04:47:32.511Z,9.60
2022-09-17T04:50:01.974Z,9.60
2022-09-17T04:52:31.117Z,9.60
2022-09-17T04:54:59.281Z,9.60
2022-09-17T04:57:27.889Z,9.60
2022-09-17T04:59:56.056Z,9.60
2022-09-17T05:02:24.201Z,9.60
2022-09-17T05:04:52.248Z,9.70
2022-09-17T05:07:21.637Z,9.40
2022-09-17T05:09:49.755Z,9.50
2022-09-17T05:12:17.782Z,9.50
2022-09-17T05:14:45.798Z,9.50
2022-09-17T05:17:13.864Z,9.40
2022-09-17T05:19:41.831Z,9.40
2022-09-17T05:22:09.790Z,9.40
2022-09-17T05:24:39.835Z,9.40
2022-09-17T05:27:08.149Z,9.40
2022-09-17T05:29:36.828Z,9.40
2022-09-17T05:32:05.372Z,9.40
2022-09-17T05:34:33.502Z,9.30
2022-09-17T05:37:01.494Z,9.30
2022-09-17T05:39:29.574Z,9.40
2022-09-17T05:41:58.883Z,9.50
2022-09-17T05:44:26.951Z,9.50
2022-09-17T05:46:55.534Z,9.60
2022-09-17T05:49:23.585Z,9.50
2022-09-17T05:51:51.964Z,9.50
2022-09-17T05:54:19.929Z,9.50
2022-09-17T05:56:47.939Z,9.60
2022-09-17T05:59:17.302Z,9.60
2022-09-17T06:01:46.431Z,9.60
2022-09-17T06:04:14.597Z,9.70
2022-09-17T06:06:42.667Z,9.70
2022-09-17T06:09:11.518Z,9.70
2022-09-17T06:11:39.513Z,9.70
2022-09-17T06:14:07.594Z,9.70
2022-09-17T06:16:37.075Z,9.70
2022-09-17T06:19:05.283Z,9.70
2022-09-17T06:21:33.638Z,9.80
2022-09-17T06:24:02.258Z,9.70
2022-09-17T06:26:30.394Z,9.80
2022-09-17T06:29:01.183Z,10.20
2022-09-17T06:31:29.358Z,10.80
2022-09-17T06:33:58.985Z,11.40
2022-09-17T06:36:27.071Z,11.90
2022-09-17T06:38:55.088Z,12.40
2022-09-17T06:41:23.522Z,12.60
2022-09-17T06:43:54.227Z,12.80
2022-09-17T06:46:22.595Z,13.00
2022-09-17T06:48:50.842Z,13.20
2022-09-17T06:51:20.224Z,13.30
2022-09-17T06:53:48.879Z,13.50
2022-09-17T06:56:17.488Z,13.00
2022-09-17T06:58:45.698Z,12.60
2022-09-17T07:01:14.853Z,12.30
2022-09-17T07:03:44.144Z,12.10
2022-09-17T07:06:12.951Z,11.80
2022-09-17T07:08:42.318Z,11.50
2022-09-17T07:11:10.660Z,11.40
2022-09-17T07:13:38.810Z,11.20
2022-09-17T07:16:07.659Z,11.20
2022-09-17T07:18:35.893Z,11.10
2022-09-17T07:21:06.249Z,11.10
2022-09-17T07:23:35.865Z,11.10
2022-09-17T07:26:07.725Z,11.00
2022-09-17T07:28:36.129Z,11.00
2022-09-17T07:31:06.515Z,11.10
2022-09-17T07:33:36.847Z,11.10
2022-09-17T07:36:07.503Z,11.00
2022-09-17T07:38:36.304Z,11.00
2022-09-17T07:41:07.155Z,10.90
2022-09-17T07:43:36.293Z,10.90
2022-09-17T07:46:06.086Z,10.90
2022-09-17T07:48:34.304Z,10.80
2022-09-17T07:51:02.606Z,10.60
2022-09-17T07:53:30.691Z,10.60
2022-09-17T07:56:01.357Z,10.70
2022-09-17T07:58:33.469Z,10.70
2022-09-17T08:01:02.770Z,10.70
2022-09-17T08:03:30.911Z,10.70
2022-09-17T08:06:04.952Z,10.60
2022-09-17T08:08:34.150Z,10.60
2022-09-17T08:11:03.281Z,10.80
2022-09-17T08:13:32.909Z,10.90
2022-09-17T08:16:01.860Z,11.10
2022-09-17T08:18:29.923Z,11.20
2022-09-17T08:20:59.503Z,11.20
2022-09-17T08:23:28.642Z,11.10
2022-09-17T08:25:57.453Z,11.10
2022-09-17T08:28:27.441Z,11.00
2022-09-17T08:31:01.367Z,11.20
2022-09-17T08:33:32.564Z,11.30
2022-09-17T08:36:00.869Z,11.50
2022-09-17T08:38:29.657Z,11.60
2022-09-17T08:41:06.039Z,11.90
2022-09-17T08:43:41.062Z,12.00
2022-09-17T08:46:12.010Z,12.10
2022-09-17T08:48:44.327Z,12.10
2022-09-17T08:51:23.896Z,11.90
2022-09-17T08:54:03.053Z,11.70
2022-09-17T08:56:32.802Z,11.60
2022-09-17T08:59:21.680Z,11.60
2022-09-17T09:02:02.005Z,11.60
2022-09-17T09:04:45.075Z,11.60
2022-09-17T09:07:18.844Z,11.70
2022-09-17T09:09:50.575Z,11.60
2022-09-17T09:12:24.745Z,11.50
2022-09-17T09:14:59.299Z,11.50
2022-09-17T09:17:36.197Z,11.60
2022-09-17T09:20:06.637Z,11.60
2022-09-17T09:22:46.531Z,11.90
2022-09-17T09:25:24.276Z,12.20
2022-09-17T09:28:04.240Z,12.60
2022-09-17T09:30:44.538Z,12.90
2022-09-17T09:33:17.903Z,13.10
2022-09-17T09:35:46.295Z,13.00
2022-09-17T09:38:23.137Z,12.80
2022-09-17T09:40:58.096Z,12.70
2022-09-17T09:43:53.011Z,12.70
2022-09-17T09:46:38.737Z,12.50
2022-09-17T09:49:20.988Z,12.90
2022-09-17T09:51:59.873Z,13.50
2022-09-17T09:54:40.822Z,13.90
2022-09-17T09:57:13.784Z,13.90
2022-09-17T09:59:42.484Z,13.70
2022-09-17T10:02:11.376Z,13.60
2022-09-17T10:04:40.968Z,13.60
2022-09-17T10:07:12.261Z,13.70
2022-09-17T10:09:47.314Z,13.70
2022-09-17T10:12:18.925Z,13.60
2022-09-17T10:14:48.397Z,13.30
2022-09-17T10:17:22.434Z,13.10
2022-09-17T10:20:19.308Z,13.00
2022-09-17T10:22:50.610Z,12.90
2022-09-17T10:25:30.131Z,12.90
2022-09-17T10:27:59.901Z,13.00
2022-09-17T10:30:28.423Z,13.20
2022-09-17T10:33:24.934Z,13.60
2022-09-17T10:36:00.029Z,14.20
2022-09-17T10:38:33.508Z,14.30
2022-09-17T10:41:16.603Z,14.30
2022-09-17T10:43:44.616Z,14.10
2022-09-17T10:46:17.893Z,14.40
2022-09-17T10:48:57.911Z,14.90
2022-09-17T10:51:27.852Z,14.70
2022-09-17T10:54:31.680Z,15.00
2022-09-17T10:57:00.576Z,15.20
2022-09-17T11:00:00.548Z,15.60
2022-09-17T11:02:53.639Z,15.40
2022-09-17T11:05:56.251Z,15.00
2022-09-17T11:08:34.874Z,15.20
2022-09-17T11:11:10.613Z,15.80
2022-09-17T11:13:47.123Z,16.20
2022-09-17T11:16:28.751Z,16.40
2022-09-17T11:19:03.599Z,16.50
2022-09-17T11:21:41.532Z,16.30
2022-09-17T11:24:29.916Z,15.80
2022-09-17T11:27:07.662Z,15.50
2022-09-17T11:29:55.905Z,15.40
2022-09-17T11:32:40.156Z,15.00
2022-09-17T11:35:12.554Z,14.90
2022-09-17T11:37:49.085Z,15.10
2022-09-17T11:40:23.893Z,15.50
2022-09-17T11:42:57.168Z,15.40
2022-09-17T11:45:30.396Z,15.20
2022-09-17T11:48:05.130Z,15.30
2022-09-17T11:50:38.323Z,15.50
2022-09-17T11:53:16.187Z,15.70
2022-09-17T11:55:50.236Z,15.90
2022-09-17T11:58:26.306Z,16.10
2022-09-17T12:01:02.370Z,16.00
2022-09-17T12:03:34.002Z,15.70
2022-09-17T12:06:07.187Z,15.60
2022-09-17T12:08:43.372Z,15.50
2022-09-17T12:11:17.069Z,15.30
2022-09-17T12:13:49.341Z,15.30
2022-09-17T12:16:23.028Z,15.70
2022-09-17T12:19:02.136Z,15.90
2022-09-17T12:21:36.231Z,15.80
2022-09-17T12:24:13.018Z,15.50
2022-09-17T12:27:05.873Z,15.50
2022-09-17T12:30:04.078Z,15.40
2022-09-17T12:32:52.073Z,15.00
2022-09-17T12:35:59.755Z,14.90
2022-09-17T12:38:42.466Z,14.70
2022-09-17T12:41:17.745Z,14.80
2022-09-17T12:44:04.139Z,14.80
2022-09-17T12:46:48.037Z,14.60
2022-09-17T12:49:45.479Z,14.70
2022-09-17T12:52:23.543Z,14.60
2022-09-17T12:55:12.696Z,14.50
2022-09-17T12:57:49.748Z,14.40
2022-09-17T13:00:19.403Z,14.40
2022-09-17T13:02:52.733Z,14.50
2022-09-17T13:05:41.645Z,14.60
2022-09-17T13:08:31.646Z,14.60
2022-09-17T13:11:32.964Z,14.80
2022-09-17T13:14:07.622Z,15.20
2022-09-17T13:16:41.948Z,15.50
2022-09-17T13:19:23.195Z,15.20
2022-09-17T13:21:55.761Z,14.80
2022-09-17T13:24:27.167Z,14.60
2022-09-17T13:26:56.324Z,14.30
2022-09-17T13:29:58.637Z,13.80
2022-09-17T13:32:54.132Z,13.30
2022-09-17T13:35:49.243Z,13.00
2022-09-17T13:38:21.662Z,12.80
2022-09-17T13:40:52.156Z,12.60
2022-09-17T13:43:26.997Z,12.30
2022-09-17T13:46:12.829Z,12.20
2022-09-17T13:48:51.066Z,12.10
2022-09-17T13:51:46.924Z,12.10
2022-09-17T13:54:16.811Z,12.20
2022-09-17T13:56:47.396Z,12.30
2022-09-17T13:59:19.172Z,12.50
2022-09-17T14:02:05.278Z,12.60
2022-09-17T14:04:48.091Z,12.70
2022-09-17T14:07:47.353Z,12.60
2022-09-17T14:10:41.539Z,12.60
2022-09-17T14:13:39.470Z,12.70
2022-09-17T14:16:47.631Z,12.70
2022-09-17T14:19:36.944Z,13.10
2022-09-17T14:22:15.437Z,13.40
2022-09-17T14:24:55.434Z,13.70
2022-09-17T14:27:46.305Z,13.80
2022-09-17T14:30:17.633Z,13.90
2022-09-17T14:32:52.870Z,14.20
2022-09-17T14:35:30.998Z,14.00
2022-09-17T14:38:03.372Z,13.60
2022-09-17T14:40:35.279Z,13.50
2022-09-17T14:43:04.297Z,13.50
2022-09-17T14:45:34.575Z,13.60
2022-09-17T14:48:28.676Z,13.80
2022-09-17T14:51:28.298Z,13.80
2022-09-17T14:54:20.517Z,13.70
2022-09-17T14:56:58.740Z,13.60
2022-09-17T14:59:49.094Z,13.60
2022-09-17T15:02:36.889Z,13.70
2022-09-17T15:05:19.231Z,13.80
2022-09-17T15:07:47.945Z,13.70
2022-09-17T15:10:17.798Z,13.60
2022-09-17T15:12:48.600Z,13.60
2022-09-17T15:15:20.860Z,13.60
2022-09-17T15:17:50.112Z,13.50
2022-09-17T15:20:20.974Z,13.50
2022-09-17T15:22:55.482Z,13.40
2022-09-17T15:25:26.624Z,13.30
2022-09-17T15:27:58.136Z,13.00
2022-09-17T15:30:28.070Z,13.10
2022-09-17T15:32:57.640Z,13.00
2022-09-17T15:35:29.289Z,13.00
2022-09-17T15:38:21.882Z,13.00
2022-09-17T15:40:48.636Z,12.90
2022-09-17T15:43:23.057Z,12.90
2022-09-17T15:45:51.399Z,12.90
2022-09-17T15:48:35.339Z,12.90
2022-09-17T15:51:04.881Z,13.00
2022-09-17T15:53:33.908Z,13.00
2022-09-17T15:56:09.557Z,13.10
2022-09-17T15:58:54.195Z,13.10
2022-09-17T16:01:54.895Z,13.00
2022-09-17T16:04:25.817Z,13.00
2022-09-17T16:07:02.238Z,12.90
2022-09-17T16:09:49.080Z,12.90
2022-09-17T16:12:20.656Z,12.90
2022-09-17T16:14:52.526Z,12.90
2022-09-17T16:17:27.991Z,12.90
2022-09-17T16:19:56.852Z,12.90
2022-09-17T16:22:26.380Z,12.90
2022-09-17T16:24:54.406Z,12.90
2022-09-17T16:27:25.597Z,12.90
2022-09-17T16:30:01.799Z,12.80
2022-09-17T16:32:29.956Z,12.70
2022-09-17T16:34:57.992Z,12.70
2022-09-17T16:37:26.200Z,12.70
2022-09-17T16:39:54.345Z,12.60
2022-09-17T16:42:22.387Z,12.70
2022-09-17T16:44:50.377Z,12.50
2022-09-17T16:47:19.771Z,12.50
2022-09-17T16:49:47.840Z,12.40
2022-09-17T16:52:15.807Z,12.30
2022-09-17T16:54:43.822Z,12.20
2022-09-17T16:57:11.940Z,12.10
2022-09-17T16:59:40.368Z,12.10
2022-09-17T17:02:08.416Z,12.10
2022-09-17T17:04:37.819Z,12.00
2022-09-17T17:07:05.946Z,12.00
2022-09-17T17:09:34.194Z,11.90
2022-09-17T17:12:02.295Z,11.80
2022-09-17T17:14:30.381Z,11.80
2022-09-17T17:16:58.452Z,11.70
2022-09-17T17:19:27.100Z,11.70
2022-09-17T17:21:56.635Z,11.70
2022-09-17T17:24:24.657Z,11.70
2022-09-17T17:26:52.646Z,11.70
2022-09-17T17:29:20.613Z,11.70
2022-09-17T17:31:49.474Z,11.70
2022-09-17T17:34:17.662Z,11.70
2022-09-17T17:36:45.819Z,11.70
2022-09-17T17:39:15.199Z,11.70
2022-09-17T17:41:43.229Z,11.70
2022-09-17T17:44:12.647Z,11.70
2022-09-17T17:46:40.861Z,11.70
2022-09-17T17:49:09.696Z,11.60
2022-09-17T17:51:37.671Z,11.70
2022-09-17T17:54:06.090Z,11.70
2022-09-17T17:56:35.461Z,11.60
2022-09-17T17:59:03.589Z,11.60
2022-09-17T18:01:34.945Z,11.60
2022-09-17T18:04:05.258Z,11.60
2022-09-17T18:06:33.356Z,11.60
2022-09-17T18:09:02.341Z,11.60
2022-09-17T18:11:31.278Z,11.60
2022-09-17T18:14:02.020Z,11.60
2022-09-17T18:16:30.855Z,11.50
2022-09-17T18:18:59.338Z,11.50
2022-09-17T18:21:28.030Z,11.60
2022-09-17T18:23:56.116Z,11.40
2022-09-17T18:26:26.237Z,11.50
2022-09-17T18:28:54.707Z,11.50
2022-09-17T18:31:26.463Z,11.40
2022-09-17T18:33:57.630Z,11.40
2022-09-17T18:36:25.839Z,11.40
2022-09-17T18:39:16.683Z,11.40
2022-09-17T18:41:50.746Z,11.40
2022-09-17T18:44:21.658Z,11.30
2022-09-17T18:46:51.898Z,11.40
2022-09-17T18:49:20.043Z,11.40
2022-09-17T18:51:48.007Z,11.30
2022-09-17T18:54:16.123Z,11.30
2022-09-17T18:56:44.234Z,11.30
2022-09-17T18:59:12.468Z,11.20
2022-09-17T19:01:40.442Z,11.20
2022-09-17T19:04:11.229Z,11.20
2022-09-17T19:06:39.306Z,11.20
2022-09-17T19:09:07.453Z,11.20
2022-09-17T19:11:36.176Z,11.20
2022-09-17T19:14:04.479Z,11.10
2022-09-17T19:16:32.691Z,11.10
2022-09-17T19:19:00.840Z,11.10
2022-09-17T19:21:30.468Z,11.10
2022-09-17T19:23:58.936Z,11.10
2022-09-17T19:26:28.138Z,11.10
2022-09-17T19:28:58.659Z,11.10
2022-09-17T19:31:28.018Z,11.10
2022-09-17T19:33:58.475Z,11.10
2022-09-17T19:36:26.668Z,11.10
2022-09-17T19:38:58.587Z,11.10
2022-09-17T19:41:26.716Z,11.10
2022-09-17T19:43:56.903Z,11.20
2022-09-17T19:46:26.852Z,11.10
2022-09-17T19:48:56.381Z,11.10
2022-09-17T19:51:26.470Z,11.10
2022-09-17T19:56:13.467Z,11.10
2022-09-17T19:58:42.212Z,10.80
2022-09-17T20:01:10.756Z,10.40
2022-09-17T20:03:40.170Z,10.00
2022-09-17T20:06:11.900Z,9.80
2022-09-17T20:08:47.044Z,9.80
2022-09-17T20:11:17.732Z,9.70
2022-09-17T20:13:46.130Z,9.50
2022-09-17T20:16:15.942Z,9.60
2022-09-17T20:18:44.901Z,9.50
2022-09-17T20:21:14.805Z,9.40
2022-09-17T20:23:43.546Z,9.40
2022-09-17T20:26:12.945Z,9.50
2022-09-17T20:28:42.828Z,9.50
2022-09-17T20:31:13.894Z,9.50
2022-09-17T20:33:42.621Z,9.50
2022-09-17T20:36:14.764Z,9.50
2022-09-17T20:41:32.292Z,9.40
2022-09-17T20:44:01.597Z,9.40
2022-09-17T20:46:29.905Z,9.40
2022-09-17T20:48:58.787Z,9.30
2022-09-17T20:51:28.476Z,9.20
2022-09-17T20:53:57.942Z,9.20
2022-09-17T20:56:28.006Z,9.20
2022-09-17T20:59:04.034Z,9.20
2022-09-17T21:01:34.556Z,9.10
2022-09-17T21:04:05.048Z,9.20
2022-09-17T21:06:34.880Z,9.10
2022-09-17T21:09:03.526Z,9.10
2022-09-17T21:11:32.267Z,9.10
2022-09-17T21:14:01.813Z,9.20
2022-09-17T21:16:30.840Z,9.20
2022-09-17T21:19:05.108Z,9.40
2022-09-17T21:21:34.623Z,9.30
2022-09-17T21:24:03.580Z,9.30
2022-09-17T21:26:32.612Z,9.30
2022-09-17T21:29:00.820Z,9.40
2022-09-17T21:31:32.789Z,9.50
2022-09-17T21:34:05.043Z,9.50
2022-09-17T21:36:34.996Z,9.50
2022-09-17T21:39:05.626Z,9.50
2022-09-17T21:41:35.747Z,9.60
2022-09-17T21:44:06.928Z,9.60
2022-09-17T21:46:39.288Z,9.50
2022-09-17T21:49:08.754Z,9.50
2022-09-17T21:51:38.697Z,9.60
2022-09-17T21:54:12.023Z,9.60
2022-09-17T21:56:40.291Z,9.60
2022-09-17T21:59:09.783Z,9.60
2022-09-17T22:01:40.804Z,9.50
2022-09-17T22:04:12.573Z,9.50
2022-09-17T22:06:41.289Z,9.50
2022-09-17T22:09:14.346Z,9.40
2022-09-17T22:11:42.552Z,9.40
2022-09-17T22:14:13.633Z,9.40
2022-09-17T22:16:43.298Z,9.30
2022-09-17T22:19:14.295Z,9.20
2022-09-17T22:21:44.644Z,9.10
2022-09-17T22:24:13.271Z,9.20
2022-09-17T22:26:44.395Z,9.10
2022-09-17T22:29:15.032Z,9.20
2022-09-17T22:31:43.607Z,9.20
2022-09-17T22:34:15.361Z,9.20
2022-09-17T22:36:43.605Z,9.10
2022-09-17T22:39:11.947Z,9.00
2022-09-17T22:41:45.553Z,9.20
2022-09-17T22:44:16.663Z,9.10
2022-09-17T22:46:46.276Z,9.00
2022-09-17T22:49:16.499Z,9.10
2022-09-17T22:51:46.542Z,9.10
2022-09-17T22:54:16.740Z,9.10
2022-09-17T22:56:45.040Z,9.10
2022-09-17T22:59:13.150Z,9.00
2022-09-17T23:01:41.853Z,9.10
2022-09-17T23:04:10.768Z,9.00
2022-09-17T23:06:42.467Z,9.00
2022-09-17T23:09:10.617Z,9.00
2022-09-17T23:11:40.510Z,9.00
2022-09-17T23:14:11.156Z,9.10
2022-09-17T23:16:41.009Z,9.00
2022-09-17T23:19:09.237Z,9.00
2022-09-17T23:21:38.029Z,9.00
2022-09-17T23:24:07.980Z,9.00
2022-09-17T23:26:36.217Z,9.10
2022-09-17T23:29:05.719Z,9.00
2022-09-17T23:31:35.779Z,9.00
2022-09-17T23:34:05.126Z,9.10
2022-09-17T23:36:34.924Z,9.10
2022-09-17T23:39:04.541Z,9.10
2022-09-17T23:41:35.568Z,9.10
2022-09-17T23:44:09.406Z,9.10
2022-09-17T23:46:40.320Z,9.10
2022-09-17T23:49:08.349Z,9.20
2022-09-17T23:51:37.676Z,9.10
2022-09-17T23:54:07.226Z,9.10
2022-09-17T23:56:37.471Z,9.20
2022-09-17T23:59:07.391Z,9.20
